sensor_id;sensor_type;location;lat;lon;timestamp;pressure;altitude;pressure_sealevel;temperature;humidity
4022;BME280;2025;48.260;16.432;2023-02-03T00:01:56;100768.06;;;2.32;68.24
4022;BME280;2025;48.260;16.432;2023-02-03T00:04:23;100763.06;;;2.29;68.26
4022;BME280;2025;48.260;16.432;2023-02-03T00:06:50;100770.78;;;2.31;68.22
4022;BME280;2025;48.260;16.432;2023-02-03T00:09:18;100775.22;;;2.29;68.62
4022;BME280;2025;48.260;16.432;2023-02-03T00:11:45;100783.94;;;2.28;68.53
4022;BME280;2025;48.260;16.432;2023-02-03T00:14:14;100777.06;;;2.27;68.72
4022;BME280;2025;48.260;16.432;2023-02-03T00:16:41;100782.34;;;2.25;69.17
4022;BME280;2025;48.260;16.432;2023-02-03T00:19:08;100790.06;;;2.27;69.00
4022;BME280;2025;48.260;16.432;2023-02-03T00:21:35;100796.28;;;2.24;69.23
4022;BME280;2025;48.260;16.432;2023-02-03T00:24:02;100805.25;;;2.19;69.01
4022;BME280;2025;48.260;16.432;2023-02-03T00:26:29;100805.38;;;2.17;69.25
4022;BME280;2025;48.260;16.432;2023-02-03T00:28:57;100803.03;;;2.13;69.73
4022;BME280;2025;48.260;16.432;2023-02-03T00:31:26;100801.28;;;2.13;69.57
4022;BME280;2025;48.260;16.432;2023-02-03T00:33:53;100807.22;;;2.15;69.33
4022;BME280;2025;48.260;16.432;2023-02-03T00:36:21;100811.59;;;2.15;69.87
4022;BME280;2025;48.260;16.432;2023-02-03T00:38:48;100804.63;;;2.15;69.46
4022;BME280;2025;48.260;16.432;2023-02-03T00:41:15;100813.81;;;2.21;69.45
4022;BME280;2025;48.260;16.432;2023-02-03T00:43:42;100805.19;;;2.20;69.06
4022;BME280;2025;48.260;16.432;2023-02-03T00:46:09;100814.66;;;2.21;69.11
4022;BME280;2025;48.260;16.432;2023-02-03T00:48:37;100812.91;;;2.22;69.06
4022;BME280;2025;48.260;16.432;2023-02-03T00:51:05;100818.53;;;2.14;69.57
4022;BME280;2025;48.260;16.432;2023-02-03T00:53:32;100812.75;;;2.09;69.53
4022;BME280;2025;48.260;16.432;2023-02-03T00:55:59;100824.94;;;2.08;69.90
4022;BME280;2025;48.260;16.432;2023-02-03T00:58:26;100825.94;;;2.06;70.04
4022;BME280;2025;48.260;16.432;2023-02-03T01:00:53;100811.25;;;2.05;70.08
4022;BME280;2025;48.260;16.432;2023-02-03T01:03:20;100806.81;;;2.07;70.28
4022;BME280;2025;48.260;16.432;2023-02-03T01:05:49;100807.75;;;2.06;70.04
4022;BME280;2025;48.260;16.432;2023-02-03T01:08:16;100807.66;;;2.07;69.86
4022;BME280;2025;48.260;16.432;2023-02-03T01:10:43;100804.47;;;2.02;70.06
4022;BME280;2025;48.260;16.432;2023-02-03T01:13:10;100804.75;;;1.98;70.23
4022;BME280;2025;48.260;16.432;2023-02-03T01:15:37;100803.00;;;1.98;70.26
4022;BME280;2025;48.260;16.432;2023-02-03T01:18:04;100805.59;;;1.98;70.18
4022;BME280;2025;48.260;16.432;2023-02-03T01:20:31;100797.81;;;1.98;70.02
4022;BME280;2025;48.260;16.432;2023-02-03T01:22:59;100797.13;;;1.95;70.20
4022;BME280;2025;48.260;16.432;2023-02-03T01:25:26;100797.97;;;1.95;70.32
4022;BME280;2025;48.260;16.432;2023-02-03T01:27:53;100803.09;;;1.97;70.14
4022;BME280;2025;48.260;16.432;2023-02-03T01:30:20;100805.38;;;1.87;70.46
4022;BME280;2025;48.260;16.432;2023-02-03T01:32:47;100800.06;;;1.88;70.62
4022;BME280;2025;48.260;16.432;2023-02-03T01:35:14;100795.16;;;1.84;70.47
4022;BME280;2025;48.260;16.432;2023-02-03T01:37:41;100791.41;;;1.74;71.36
4022;BME280;2025;48.260;16.432;2023-02-03T01:40:10;100791.16;;;1.78;71.24
4022;BME280;2025;48.260;16.432;2023-02-03T01:42:37;100782.53;;;1.78;71.19
4022;BME280;2025;48.260;16.432;2023-02-03T01:45:05;100773.03;;;1.77;71.20
4022;BME280;2025;48.260;16.432;2023-02-03T01:47:34;100768.88;;;1.74;71.22
4022;BME280;2025;48.260;16.432;2023-02-03T01:50:07;100769.28;;;1.82;71.07
4022;BME280;2025;48.260;16.432;2023-02-03T01:52:36;100763.59;;;1.76;71.13
4022;BME280;2025;48.260;16.432;2023-02-03T01:55:07;100756.91;;;1.72;71.23
4022;BME280;2025;48.260;16.432;2023-02-03T01:57:40;100756.16;;;1.69;71.67
4022;BME280;2025;48.260;16.432;2023-02-03T02:00:09;100757.47;;;1.77;71.39
4022;BME280;2025;48.260;16.432;2023-02-03T02:02:36;100759.41;;;1.73;71.95
4022;BME280;2025;48.260;16.432;2023-02-03T02:05:06;100750.59;;;1.76;71.68
4022;BME280;2025;48.260;16.432;2023-02-03T02:07:35;100754.56;;;1.67;71.86
4022;BME280;2025;48.260;16.432;2023-02-03T02:10:04;100743.56;;;1.47;72.40
4022;BME280;2025;48.260;16.432;2023-02-03T02:12:31;100750.25;;;1.52;72.61
4022;BME280;2025;48.260;16.432;2023-02-03T02:15:00;100744.81;;;1.56;72.42
4022;BME280;2025;48.260;16.432;2023-02-03T02:17:40;100746.84;;;1.65;72.39
4022;BME280;2025;48.260;16.432;2023-02-03T02:20:34;100744.81;;;1.56;72.68
4022;BME280;2025;48.260;16.432;2023-02-03T02:23:25;100735.84;;;1.46;72.84
4022;BME280;2025;48.260;16.432;2023-02-03T02:26:19;100731.59;;;1.45;73.20
4022;BME280;2025;48.260;16.432;2023-02-03T02:29:09;100731.06;;;1.54;73.07
4022;BME280;2025;48.260;16.432;2023-02-03T02:31:56;100723.19;;;1.40;73.33
4022;BME280;2025;48.260;16.432;2023-02-03T02:34:38;100723.38;;;1.37;73.46
4022;BME280;2025;48.260;16.432;2023-02-03T02:37:16;100719.25;;;1.48;73.44
4022;BME280;2025;48.260;16.432;2023-02-03T02:39:48;100720.56;;;1.56;73.57
4022;BME280;2025;48.260;16.432;2023-02-03T02:42:26;100723.59;;;1.64;73.20
4022;BME280;2025;48.260;16.432;2023-02-03T02:45:02;100712.25;;;1.65;73.47
4022;BME280;2025;48.260;16.432;2023-02-03T02:47:32;100719.13;;;1.66;73.64
4022;BME280;2025;48.260;16.432;2023-02-03T02:50:02;100709.03;;;1.61;73.51
4022;BME280;2025;48.260;16.432;2023-02-03T02:52:34;100718.88;;;1.71;73.58
4022;BME280;2025;48.260;16.432;2023-02-03T02:55:09;100708.78;;;1.80;74.14
4022;BME280;2025;48.260;16.432;2023-02-03T02:57:38;100709.69;;;1.79;74.67
4022;BME280;2025;48.260;16.432;2023-02-03T03:00:06;100704.34;;;1.82;74.89
4022;BME280;2025;48.260;16.432;2023-02-03T03:02:35;100689.94;;;1.91;75.53
4022;BME280;2025;48.260;16.432;2023-02-03T03:05:03;100683.00;;;1.92;75.63
4022;BME280;2025;48.260;16.432;2023-02-03T03:07:35;100675.22;;;1.92;76.09
4022;BME280;2025;48.260;16.432;2023-02-03T03:10:09;100664.16;;;1.88;76.93
4022;BME280;2025;48.260;16.432;2023-02-03T03:12:40;100673.81;;;1.86;77.61
4022;BME280;2025;48.260;16.432;2023-02-03T03:15:13;100680.47;;;1.76;79.01
4022;BME280;2025;48.260;16.432;2023-02-03T03:17:48;100674.25;;;1.64;80.08
4022;BME280;2025;48.260;16.432;2023-02-03T03:20:22;100671.16;;;1.57;80.50
4022;BME280;2025;48.260;16.432;2023-02-03T03:22:53;100683.84;;;1.47;81.09
4022;BME280;2025;48.260;16.432;2023-02-03T03:25:25;100684.25;;;1.40;81.58
4022;BME280;2025;48.260;16.432;2023-02-03T03:27:55;100681.66;;;1.40;81.99
4022;BME280;2025;48.260;16.432;2023-02-03T03:30:27;100682.78;;;1.36;81.91
4022;BME280;2025;48.260;16.432;2023-02-03T03:32:56;100676.66;;;1.37;82.17
4022;BME280;2025;48.260;16.432;2023-02-03T03:35:27;100677.59;;;1.36;82.53
4022;BME280;2025;48.260;16.432;2023-02-03T03:37:59;100680.19;;;1.36;82.56
4022;BME280;2025;48.260;16.432;2023-02-03T03:40:34;100670.91;;;1.32;83.22
4022;BME280;2025;48.260;16.432;2023-02-03T03:43:09;100667.75;;;1.26;83.55
4022;BME280;2025;48.260;16.432;2023-02-03T03:45:41;100669.41;;;1.27;83.30
4022;BME280;2025;48.260;16.432;2023-02-03T03:48:14;100670.06;;;1.31;82.87
4022;BME280;2025;48.260;16.432;2023-02-03T03:50:45;100674.31;;;1.32;83.53
4022;BME280;2025;48.260;16.432;2023-02-03T03:53:14;100672.56;;;1.33;83.26
4022;BME280;2025;48.260;16.432;2023-02-03T03:55:46;100685.91;;;1.26;84.09
4022;BME280;2025;48.260;16.432;2023-02-03T03:58:17;100691.00;;;1.28;84.24
4022;BME280;2025;48.260;16.432;2023-02-03T04:00:47;100703.44;;;1.37;84.06
4022;BME280;2025;48.260;16.432;2023-02-03T04:03:19;100710.22;;;1.40;84.08
4022;BME280;2025;48.260;16.432;2023-02-03T04:05:47;100708.50;;;1.40;84.23
4022;BME280;2025;48.260;16.432;2023-02-03T04:08:14;100692.16;;;1.38;84.42
4022;BME280;2025;48.260;16.432;2023-02-03T04:10:41;100672.31;;;1.37;84.42
4022;BME280;2025;48.260;16.432;2023-02-03T04:13:10;100669.81;;;1.36;84.00
4022;BME280;2025;48.260;16.432;2023-02-03T04:15:38;100676.84;;;1.34;84.46
4022;BME280;2025;48.260;16.432;2023-02-03T04:18:05;100669.06;;;1.34;84.54
4022;BME280;2025;48.260;16.432;2023-02-03T04:20:33;100664.34;;;1.40;84.63
4022;BME280;2025;48.260;16.432;2023-02-03T04:23:00;100663.69;;;1.37;84.79
4022;BME280;2025;48.260;16.432;2023-02-03T04:25:27;100648.69;;;1.42;84.78
4022;BME280;2025;48.260;16.432;2023-02-03T04:27:54;100632.47;;;1.38;84.88
4022;BME280;2025;48.260;16.432;2023-02-03T04:30:21;100639.31;;;1.39;85.05
4022;BME280;2025;48.260;16.432;2023-02-03T04:32:49;100627.16;;;1.40;85.05
4022;BME280;2025;48.260;16.432;2023-02-03T04:35:16;100643.22;;;1.46;84.92
4022;BME280;2025;48.260;16.432;2023-02-03T04:37:44;100633.09;;;1.42;85.15
4022;BME280;2025;48.260;16.432;2023-02-03T04:40:12;100629.03;;;1.38;85.12
4022;BME280;2025;48.260;16.432;2023-02-03T04:42:39;100623.09;;;1.36;85.66
4022;BME280;2025;48.260;16.432;2023-02-03T04:45:08;100628.66;;;1.44;85.34
4022;BME280;2025;48.260;16.432;2023-02-03T04:47:35;100625.41;;;1.40;85.37
4022;BME280;2025;48.260;16.432;2023-02-03T04:50:04;100625.78;;;1.48;85.43
4022;BME280;2025;48.260;16.432;2023-02-03T04:52:31;100622.78;;;1.56;84.98
4022;BME280;2025;48.260;16.432;2023-02-03T04:54:59;100618.38;;;1.42;85.42
4022;BME280;2025;48.260;16.432;2023-02-03T04:57:28;100618.75;;;1.51;85.29
4022;BME280;2025;48.260;16.432;2023-02-03T04:59:55;100613.19;;;1.42;85.88
4022;BME280;2025;48.260;16.432;2023-02-03T05:02:22;100612.53;;;1.39;85.87
4022;BME280;2025;48.260;16.432;2023-02-03T05:04:49;100609.13;;;1.53;85.08
4022;BME280;2025;48.260;16.432;2023-02-03T05:07:16;100614.88;;;1.58;85.29
4022;BME280;2025;48.260;16.432;2023-02-03T05:09:43;100613.84;;;1.60;85.17
4022;BME280;2025;48.260;16.432;2023-02-03T05:12:11;100607.63;;;1.48;85.59
4022;BME280;2025;48.260;16.432;2023-02-03T05:14:38;100603.19;;;1.51;85.75
4022;BME280;2025;48.260;16.432;2023-02-03T05:17:05;100601.88;;;1.43;85.82
4022;BME280;2025;48.260;16.432;2023-02-03T05:19:32;100597.06;;;1.52;85.80
4022;BME280;2025;48.260;16.432;2023-02-03T05:21:58;100589.19;;;1.53;86.20
4022;BME280;2025;48.260;16.432;2023-02-03T05:24:25;100591.75;;;1.39;86.25
4022;BME280;2025;48.260;16.432;2023-02-03T05:26:52;100586.56;;;1.39;85.82
4022;BME280;2025;48.260;16.432;2023-02-03T05:29:20;100585.56;;;1.56;85.73
4022;BME280;2025;48.260;16.432;2023-02-03T05:31:47;100586.88;;;1.63;85.45
4022;BME280;2025;48.260;16.432;2023-02-03T05:34:14;100574.75;;;1.63;85.19
4022;BME280;2025;48.260;16.432;2023-02-03T05:36:41;100582.59;;;1.62;84.95
4022;BME280;2025;48.260;16.432;2023-02-03T05:39:07;100572.84;;;1.65;85.36
4022;BME280;2025;48.260;16.432;2023-02-03T05:41:34;100570.38;;;1.64;85.02
4022;BME280;2025;48.260;16.432;2023-02-03T05:44:20;100562.13;;;1.72;84.32
4022;BME280;2025;48.260;16.432;2023-02-03T05:46:47;100561.00;;;1.76;84.87
4022;BME280;2025;48.260;16.432;2023-02-03T05:49:15;100566.66;;;1.82;84.58
4022;BME280;2025;48.260;16.432;2023-02-03T05:51:42;100559.88;;;1.94;83.67
4022;BME280;2025;48.260;16.432;2023-02-03T05:54:09;100559.16;;;1.92;83.31
4022;BME280;2025;48.260;16.432;2023-02-03T05:56:36;100553.94;;;2.06;83.39
4022;BME280;2025;48.260;16.432;2023-02-03T05:59:04;100553.56;;;2.13;82.94
4022;BME280;2025;48.260;16.432;2023-02-03T06:01:33;100557.34;;;2.07;83.99
4022;BME280;2025;48.260;16.432;2023-02-03T06:04:00;100541.88;;;2.05;83.01
4022;BME280;2025;48.260;16.432;2023-02-03T06:06:27;100533.59;;;2.13;82.25
4022;BME280;2025;48.260;16.432;2023-02-03T06:08:58;100536.00;;;2.16;83.18
4022;BME280;2025;48.260;16.432;2023-02-03T06:11:25;100540.91;;;2.21;82.33
4022;BME280;2025;48.260;16.432;2023-02-03T06:13:52;100532.00;;;2.25;82.65
4022;BME280;2025;48.260;16.432;2023-02-03T06:16:20;100532.81;;;2.25;81.75
4022;BME280;2025;48.260;16.432;2023-02-03T06:18:50;100525.97;;;2.24;82.64
4022;BME280;2025;48.260;16.432;2023-02-03T06:21:18;100529.00;;;2.31;81.64
4022;BME280;2025;48.260;16.432;2023-02-03T06:23:45;100517.00;;;2.28;82.06
4022;BME280;2025;48.260;16.432;2023-02-03T06:26:12;100516.09;;;2.29;82.72
4022;BME280;2025;48.260;16.432;2023-02-03T06:28:39;100514.53;;;2.27;82.19
4022;BME280;2025;48.260;16.432;2023-02-03T06:31:06;100508.69;;;2.23;82.96
4022;BME280;2025;48.260;16.432;2023-02-03T06:33:33;100503.50;;;2.23;83.03
4022;BME280;2025;48.260;16.432;2023-02-03T06:36:02;100511.72;;;2.30;83.05
4022;BME280;2025;48.260;16.432;2023-02-03T06:38:28;100507.28;;;2.32;83.43
4022;BME280;2025;48.260;16.432;2023-02-03T06:40:55;100506.31;;;2.33;83.70
4022;BME280;2025;48.260;16.432;2023-02-03T06:43:22;100503.56;;;2.36;83.45
4022;BME280;2025;48.260;16.432;2023-02-03T06:45:49;100500.00;;;2.37;83.18
4022;BME280;2025;48.260;16.432;2023-02-03T06:48:16;100502.53;;;2.39;83.53
4022;BME280;2025;48.260;16.432;2023-02-03T06:50:44;100498.88;;;2.41;83.61
4022;BME280;2025;48.260;16.432;2023-02-03T06:53:12;100504.09;;;2.41;83.92
4022;BME280;2025;48.260;16.432;2023-02-03T06:55:39;100491.75;;;2.45;83.09
4022;BME280;2025;48.260;16.432;2023-02-03T06:58:06;100495.41;;;2.55;82.60
4022;BME280;2025;48.260;16.432;2023-02-03T07:00:33;100484.25;;;2.53;83.30
4022;BME280;2025;48.260;16.432;2023-02-03T07:03:00;100486.69;;;2.69;81.80
4022;BME280;2025;48.260;16.432;2023-02-03T07:05:27;100481.41;;;2.70;82.56
4022;BME280;2025;48.260;16.432;2023-02-03T07:07:54;100482.03;;;2.74;82.71
4022;BME280;2025;48.260;16.432;2023-02-03T07:10:23;100483.59;;;2.77;81.65
4022;BME280;2025;48.260;16.432;2023-02-03T07:12:50;100469.13;;;2.85;82.04
4022;BME280;2025;48.260;16.432;2023-02-03T07:15:17;100481.84;;;2.90;82.21
4022;BME280;2025;48.260;16.432;2023-02-03T07:17:46;100477.69;;;2.87;82.69
4022;BME280;2025;48.260;16.432;2023-02-03T07:20:20;100458.94;;;2.95;81.83
4022;BME280;2025;48.260;16.432;2023-02-03T07:22:51;100441.06;;;3.03;80.95
4022;BME280;2025;48.260;16.432;2023-02-03T07:25:18;100472.47;;;3.00;81.61
4022;BME280;2025;48.260;16.432;2023-02-03T07:27:47;100458.53;;;3.01;81.83
4022;BME280;2025;48.260;16.432;2023-02-03T07:30:14;100480.19;;;3.02;82.21
4022;BME280;2025;48.260;16.432;2023-02-03T07:32:46;100461.03;;;3.03;82.05
4022;BME280;2025;48.260;16.432;2023-02-03T07:35:13;100446.97;;;3.05;81.81
4022;BME280;2025;48.260;16.432;2023-02-03T07:37:40;100450.53;;;3.17;80.51
4022;BME280;2025;48.260;16.432;2023-02-03T07:40:08;100450.41;;;3.19;81.44
4022;BME280;2025;48.260;16.432;2023-02-03T07:42:37;100448.75;;;3.17;81.88
4022;BME280;2025;48.260;16.432;2023-02-03T07:45:07;100442.28;;;3.23;81.50
4022;BME280;2025;48.260;16.432;2023-02-03T07:47:34;100445.09;;;3.20;81.91
4022;BME280;2025;48.260;16.432;2023-02-03T07:50:01;100454.25;;;3.26;81.88
4022;BME280;2025;48.260;16.432;2023-02-03T07:52:28;100443.53;;;3.43;81.12
4022;BME280;2025;48.260;16.432;2023-02-03T07:54:54;100423.59;;;3.55;80.88
4022;BME280;2025;48.260;16.432;2023-02-03T07:57:21;100417.53;;;3.67;78.88
4022;BME280;2025;48.260;16.432;2023-02-03T07:59:48;100406.78;;;3.72;78.83
4022;BME280;2025;48.260;16.432;2023-02-03T08:02:17;100413.94;;;3.81;77.91
4022;BME280;2025;48.260;16.432;2023-02-03T08:04:44;100422.38;;;3.85;78.82
4022;BME280;2025;48.260;16.432;2023-02-03T08:07:11;100424.44;;;3.92;78.37
4022;BME280;2025;48.260;16.432;2023-02-03T08:09:37;100423.97;;;3.98;77.23
4022;BME280;2025;48.260;16.432;2023-02-03T08:12:05;100417.94;;;3.98;77.80
4022;BME280;2025;48.260;16.432;2023-02-03T08:14:32;100391.03;;;3.97;78.15
4022;BME280;2025;48.260;16.432;2023-02-03T08:16:59;100384.09;;;4.09;76.43
4022;BME280;2025;48.260;16.432;2023-02-03T08:19:27;100366.34;;;4.14;76.69
4022;BME280;2025;48.260;16.432;2023-02-03T08:21:54;100371.03;;;4.22;76.01
4022;BME280;2025;48.260;16.432;2023-02-03T08:24:21;100361.19;;;4.26;76.12
4022;BME280;2025;48.260;16.432;2023-02-03T08:26:48;100364.28;;;4.31;75.90
4022;BME280;2025;48.260;16.432;2023-02-03T08:29:15;100343.19;;;4.45;74.21
4022;BME280;2025;48.260;16.432;2023-02-03T08:31:41;100350.81;;;4.48;74.13
4022;BME280;2025;48.260;16.432;2023-02-03T08:34:08;100335.66;;;4.53;74.61
4022;BME280;2025;48.260;16.432;2023-02-03T08:36:37;100333.50;;;4.58;74.00
4022;BME280;2025;48.260;16.432;2023-02-03T08:39:04;100336.84;;;4.60;74.44
4022;BME280;2025;48.260;16.432;2023-02-03T08:41:31;100333.97;;;4.63;73.51
4022;BME280;2025;48.260;16.432;2023-02-03T08:43:59;100351.19;;;4.66;73.93
4022;BME280;2025;48.260;16.432;2023-02-03T08:46:26;100331.75;;;4.70;72.80
4022;BME280;2025;48.260;16.432;2023-02-03T08:48:53;100327.50;;;4.80;72.96
4022;BME280;2025;48.260;16.432;2023-02-03T08:51:21;100314.09;;;4.85;72.47
4022;BME280;2025;48.260;16.432;2023-02-03T08:53:50;100337.44;;;4.86;72.36
4022;BME280;2025;48.260;16.432;2023-02-03T08:56:17;100322.03;;;4.95;71.37
4022;BME280;2025;48.260;16.432;2023-02-03T08:58:45;100323.31;;;5.00;71.41
4022;BME280;2025;48.260;16.432;2023-02-03T09:01:13;100310.75;;;5.05;70.98
4022;BME280;2025;48.260;16.432;2023-02-03T09:03:41;100313.50;;;5.04;70.47
4022;BME280;2025;48.260;16.432;2023-02-03T09:06:08;100323.22;;;5.02;71.67
4022;BME280;2025;48.260;16.432;2023-02-03T09:08:37;100305.66;;;5.04;71.04
4022;BME280;2025;48.260;16.432;2023-02-03T09:11:09;100312.88;;;5.00;71.05
4022;BME280;2025;48.260;16.432;2023-02-03T09:13:36;100324.75;;;5.04;71.89
4022;BME280;2025;48.260;16.432;2023-02-03T09:16:04;100314.22;;;5.06;71.21
4022;BME280;2025;48.260;16.432;2023-02-03T09:18:31;100323.22;;;5.13;70.94
4022;BME280;2025;48.260;16.432;2023-02-03T09:21:01;100310.50;;;5.20;70.62
4022;BME280;2025;48.260;16.432;2023-02-03T09:23:28;100319.53;;;5.27;69.99
4022;BME280;2025;48.260;16.432;2023-02-03T09:25:55;100316.78;;;5.28;69.82
4022;BME280;2025;48.260;16.432;2023-02-03T09:28:23;100291.09;;;5.34;69.72
4022;BME280;2025;48.260;16.432;2023-02-03T09:30:50;100292.69;;;5.36;69.77
4022;BME280;2025;48.260;16.432;2023-02-03T09:33:17;100285.03;;;5.44;68.82
4022;BME280;2025;48.260;16.432;2023-02-03T09:35:50;100281.50;;;5.45;68.69
4022;BME280;2025;48.260;16.432;2023-02-03T09:38:17;100278.69;;;5.58;67.99
4022;BME280;2025;48.260;16.432;2023-02-03T09:40:46;100264.31;;;5.64;67.41
4022;BME280;2025;48.260;16.432;2023-02-03T09:43:30;100255.41;;;5.66;67.08
4022;BME280;2025;48.260;16.432;2023-02-03T09:46:05;100239.31;;;5.71;66.72
4022;BME280;2025;48.260;16.432;2023-02-03T09:48:36;100252.88;;;5.76;66.81
4022;BME280;2025;48.260;16.432;2023-02-03T09:51:07;100279.72;;;5.78;66.49
4022;BME280;2025;48.260;16.432;2023-02-03T09:53:44;100241.88;;;5.82;66.17
4022;BME280;2025;48.260;16.432;2023-02-03T09:56:21;100238.06;;;5.86;66.10
4022;BME280;2025;48.260;16.432;2023-02-03T09:58:50;100216.31;;;5.97;65.45
4022;BME280;2025;48.260;16.432;2023-02-03T10:01:18;100226.75;;;5.97;65.84
4022;BME280;2025;48.260;16.432;2023-02-03T10:03:51;100234.34;;;6.00;65.22
4022;BME280;2025;48.260;16.432;2023-02-03T10:06:28;100225.84;;;6.08;66.07
4022;BME280;2025;48.260;16.432;2023-02-03T10:09:29;100216.41;;;6.17;64.87
4022;BME280;2025;48.260;16.432;2023-02-03T10:12:24;100207.34;;;6.21;64.56
4022;BME280;2025;48.260;16.432;2023-02-03T10:15:09;100186.28;;;6.22;65.15
4022;BME280;2025;48.260;16.432;2023-02-03T10:17:45;100179.59;;;6.29;64.70
4022;BME280;2025;48.260;16.432;2023-02-03T10:20:17;100210.88;;;6.41;65.92
4022;BME280;2025;48.260;16.432;2023-02-03T10:22:49;100165.69;;;6.39;64.72
4022;BME280;2025;48.260;16.432;2023-02-03T10:25:19;100181.00;;;6.43;64.72
4022;BME280;2025;48.260;16.432;2023-02-03T10:27:50;100184.47;;;6.44;63.47
4022;BME280;2025;48.260;16.432;2023-02-03T10:30:21;100173.31;;;6.42;63.77
4022;BME280;2025;48.260;16.432;2023-02-03T10:32:50;100137.38;;;6.44;64.24
4022;BME280;2025;48.260;16.432;2023-02-03T10:35:20;100232.50;;;6.43;63.56
4022;BME280;2025;48.260;16.432;2023-02-03T10:37:50;100151.16;;;6.46;63.82
4022;BME280;2025;48.260;16.432;2023-02-03T10:40:25;100136.66;;;6.42;64.08
4022;BME280;2025;48.260;16.432;2023-02-03T10:42:54;100150.31;;;6.45;63.73
4022;BME280;2025;48.260;16.432;2023-02-03T10:45:40;100135.44;;;6.46;63.84
4022;BME280;2025;48.260;16.432;2023-02-03T10:48:12;100165.19;;;6.45;63.88
4022;BME280;2025;48.260;16.432;2023-02-03T10:50:43;100173.84;;;6.45;63.61
4022;BME280;2025;48.260;16.432;2023-02-03T10:53:24;100151.81;;;6.48;63.74
4022;BME280;2025;48.260;16.432;2023-02-03T10:56:00;100130.63;;;6.51;64.16
4022;BME280;2025;48.260;16.432;2023-02-03T10:58:29;100138.34;;;6.52;64.26
4022;BME280;2025;48.260;16.432;2023-02-03T11:01:05;100123.72;;;6.50;63.80
4022;BME280;2025;48.260;16.432;2023-02-03T11:03:33;100127.88;;;6.52;63.21
4022;BME280;2025;48.260;16.432;2023-02-03T11:06:06;100122.50;;;6.44;63.88
4022;BME280;2025;48.260;16.432;2023-02-03T11:08:36;100132.84;;;6.46;63.93
4022;BME280;2025;48.260;16.432;2023-02-03T11:11:05;100118.06;;;6.45;64.17
4022;BME280;2025;48.260;16.432;2023-02-03T11:13:32;100123.72;;;6.50;63.21
4022;BME280;2025;48.260;16.432;2023-02-03T11:16:02;100115.22;;;6.58;62.75
4022;BME280;2025;48.260;16.432;2023-02-03T11:18:55;100109.00;;;6.49;63.94
4022;BME280;2025;48.260;16.432;2023-02-03T11:21:24;100130.75;;;6.40;63.87
4022;BME280;2025;48.260;16.432;2023-02-03T11:24:00;100108.13;;;6.29;65.00
4022;BME280;2025;48.260;16.432;2023-02-03T11:26:32;100098.59;;;6.18;66.08
4022;BME280;2025;48.260;16.432;2023-02-03T11:29:01;100092.50;;;6.08;66.61
4022;BME280;2025;48.260;16.432;2023-02-03T11:31:31;100101.97;;;5.99;67.19
4022;BME280;2025;48.260;16.432;2023-02-03T11:34:01;100095.50;;;5.82;68.76
4022;BME280;2025;48.260;16.432;2023-02-03T11:36:33;100102.06;;;5.67;70.17
4022;BME280;2025;48.260;16.432;2023-02-03T11:39:16;100088.34;;;5.54;71.10
4022;BME280;2025;48.260;16.432;2023-02-03T11:41:45;100062.06;;;5.45;70.73
4022;BME280;2025;48.260;16.432;2023-02-03T11:44:16;100071.81;;;5.43;70.58
4022;BME280;2025;48.260;16.432;2023-02-03T11:46:46;100058.59;;;5.45;71.00
4022;BME280;2025;48.260;16.432;2023-02-03T11:52:39;100042.88;;;5.66;70.17
4022;BME280;2025;48.260;16.432;2023-02-03T11:55:15;100041.41;;;5.73;69.62
4022;BME280;2025;48.260;16.432;2023-02-03T11:57:54;100024.91;;;5.73;68.88
4022;BME280;2025;48.260;16.432;2023-02-03T12:00:30;100011.38;;;5.58;70.94
4022;BME280;2025;48.260;16.432;2023-02-03T12:03:14;100027.69;;;5.50;71.29
4022;BME280;2025;48.260;16.432;2023-02-03T12:06:07;100014.06;;;5.46;71.29
4022;BME280;2025;48.260;16.432;2023-02-03T12:08:51;100002.44;;;5.30;73.25
4022;BME280;2025;48.260;16.432;2023-02-03T12:11:33;99977.28;;;5.07;74.84
4022;BME280;2025;48.260;16.432;2023-02-03T12:14:16;99960.44;;;4.91;76.00
4022;BME280;2025;48.260;16.432;2023-02-03T12:20:20;99982.78;;;4.83;76.74
4022;BME280;2025;48.260;16.432;2023-02-03T12:22:58;99951.44;;;4.83;75.20
4022;BME280;2025;48.260;16.432;2023-02-03T12:25:38;99975.00;;;4.72;77.70
4022;BME280;2025;48.260;16.432;2023-02-03T12:28:19;99941.44;;;4.68;77.78
4022;BME280;2025;48.260;16.432;2023-02-03T12:30:48;99914.53;;;4.88;75.39
4022;BME280;2025;48.260;16.432;2023-02-03T12:33:20;99916.38;;;4.97;74.54
4022;BME280;2025;48.260;16.432;2023-02-03T12:35:53;99900.47;;;5.10;72.56
4022;BME280;2025;48.260;16.432;2023-02-03T12:38:29;99909.31;;;5.19;72.28
4022;BME280;2025;48.260;16.432;2023-02-03T12:41:03;99851.13;;;5.38;69.80
4022;BME280;2025;48.260;16.432;2023-02-03T12:43:36;99875.88;;;5.43;70.15
4022;BME280;2025;48.260;16.432;2023-02-03T12:46:10;99869.41;;;5.47;69.66
4022;BME280;2025;48.260;16.432;2023-02-03T12:48:46;99861.97;;;5.43;70.44
4022;BME280;2025;48.260;16.432;2023-02-03T12:51:23;99856.63;;;5.35;71.38
4022;BME280;2025;48.260;16.432;2023-02-03T12:53:56;99809.31;;;5.38;70.74
4022;BME280;2025;48.260;16.432;2023-02-03T12:56:28;99834.91;;;5.34;71.77
4022;BME280;2025;48.260;16.432;2023-02-03T12:59:01;99829.94;;;5.31;71.54
4022;BME280;2025;48.260;16.432;2023-02-03T13:01:33;99814.53;;;5.38;71.34
4022;BME280;2025;48.260;16.432;2023-02-03T13:04:07;99808.50;;;5.37;70.90
4022;BME280;2025;48.260;16.432;2023-02-03T13:06:43;99796.84;;;5.41;70.58
4022;BME280;2025;48.260;16.432;2023-02-03T13:09:25;99776.47;;;5.55;69.21
4022;BME280;2025;48.260;16.432;2023-02-03T13:11:58;99808.28;;;5.60;69.22
4022;BME280;2025;48.260;16.432;2023-02-03T13:14:30;99794.53;;;5.67;68.30
4022;BME280;2025;48.260;16.432;2023-02-03T13:17:02;99794.00;;;5.74;67.69
4022;BME280;2025;48.260;16.432;2023-02-03T13:19:40;99771.00;;;5.67;68.62
4022;BME280;2025;48.260;16.432;2023-02-03T13:22:13;99776.63;;;5.73;67.63
4022;BME280;2025;48.260;16.432;2023-02-03T13:24:45;99764.84;;;5.78;67.51
4022;BME280;2025;48.260;16.432;2023-02-03T13:27:22;99757.38;;;5.83;67.75
4022;BME280;2025;48.260;16.432;2023-02-03T13:30:06;99737.19;;;5.85;67.16
4022;BME280;2025;48.260;16.432;2023-02-03T13:32:51;99724.38;;;5.82;67.15
4022;BME280;2025;48.260;16.432;2023-02-03T13:35:34;99748.88;;;5.81;68.55
4022;BME280;2025;48.260;16.432;2023-02-03T13:38:29;99774.31;;;5.60;70.35